Time;durP1;ratioP1;P1;durP2;ratioP2;P2;SDS_P1;SDS_P2;PMS_P1;PMS_P2;Temp;Humidity;BMP_temperature;BMP_pressure;BME280_temperature;BME280_humidity;BME280_pressure;Samples;Min_cycle;Max_cycle;Signal;HPM_P1;HPM_P2
2024/01/02 00:00:29;;;;;;;4.35;1.20;;;;;;;6.27;100.00;97722.09;2551472;28;20031;-87
2024/01/02 00:01:47;;;;;;;6.38;1.52;;;;;;;6.05;100.00;97722.56;2566319;28;20027;-86
2024/01/02 00:03:03;;;;;;;4.00;0.98;;;;;;;6.00;100.00;97726.97;2572638;28;20049;-86
2024/01/02 00:04:19;;;;;;;4.57;1.08;;;;;;;6.00;100.00;97722.63;2562577;28;20118;-86
2024/01/02 00:05:35;;;;;;;7.13;1.20;;;;;;;5.85;100.00;97725.53;2557152;28;20133;-86
2024/01/02 00:06:51;;;;;;;9.65;1.30;;;;;;;5.83;100.00;97725.59;2567153;28;20038;-86
2024/01/02 00:08:07;;;;;;;6.80;1.35;;;;;;;5.87;100.00;97718.59;2561140;28;20047;-86
2024/01/02 00:09:24;;;;;;;5.10;1.45;;;;;;;5.93;100.00;97726.25;2566722;28;20062;-86
2024/01/02 00:10:40;;;;;;;2.97;1.48;;;;;;;5.99;100.00;97720.91;2554633;29;20081;-86
2024/01/02 00:11:56;;;;;;;6.05;1.30;;;;;;;5.83;100.00;97725.59;2538531;29;20698;-86
2024/01/02 00:13:12;;;;;;;6.18;1.58;;;;;;;5.97;100.00;97721.84;2537015;29;20076;-86
2024/01/02 00:14:28;;;;;;;5.90;1.58;;;;;;;5.98;100.00;97727.00;2547493;28;20061;-86
2024/01/02 00:15:44;;;;;;;7.45;2.10;;;;;;;5.93;100.00;97726.25;2554885;29;20039;-86
2024/01/02 00:17:00;;;;;;;6.45;1.98;;;;;;;5.76;100.00;97727.47;2561651;28;20053;-85
2024/01/02 00:18:16;;;;;;;7.05;1.80;;;;;;;5.77;100.00;97726.56;2568411;28;20247;-86
2024/01/02 00:19:32;;;;;;;7.10;1.50;;;;;;;5.76;100.00;97718.78;2568966;28;20038;-86
2024/01/02 00:20:48;;;;;;;9.80;1.83;;;;;;;5.80;100.00;97721.31;2551216;29;20087;-86
2024/01/02 00:22:04;;;;;;;8.40;2.42;;;;;;;5.99;100.00;97718.31;2567137;28;20101;-86
2024/01/02 00:23:20;;;;;;;7.57;1.65;;;;;;;5.99;100.00;97717.47;2563493;28;20043;-85
2024/01/02 00:24:36;;;;;;;6.57;1.50;;;;;;;5.93;100.00;97724.50;2556003;28;20624;-86
2024/01/02 00:25:53;;;;;;;5.45;1.92;;;;;;;5.84;100.00;97722.09;2569590;28;20085;-86
2024/01/02 00:27:10;;;;;;;7.00;1.58;;;;;;;5.83;100.00;97727.31;2564046;28;20047;-86
2024/01/02 00:28:26;;;;;;;8.73;2.15;;;;;;;5.91;100.00;97722.84;2568089;28;20042;-86
2024/01/02 00:29:43;;;;;;;8.23;1.95;;;;;;;5.90;100.00;97719.38;2574887;28;20047;-86
2024/01/02 00:30:58;;;;;;;10.05;1.67;;;;;;;5.88;100.00;97717.72;2562309;28;20400;-86
2024/01/02 00:32:15;;;;;;;4.45;1.20;;;;;;;5.70;100.00;97719.78;2563373;28;20038;-86
2024/01/02 00:33:31;;;;;;;7.55;1.80;;;;;;;5.80;100.00;97723.91;2558121;29;20139;-86
2024/01/02 00:34:47;;;;;;;8.38;1.42;;;;;;;5.96;100.00;97722.75;2564488;28;20026;-86
2024/01/02 00:36:03;;;;;;;4.90;1.35;;;;;;;5.85;100.00;97723.81;2570239;28;20047;-86
2024/01/02 00:37:19;;;;;;;6.78;1.20;;;;;;;6.13;100.00;97725.84;2563367;28;20427;-86
2024/01/02 00:38:35;;;;;;;6.72;1.30;;;;;;;6.11;100.00;97718.97;2550330;28;20117;-86
2024/01/02 00:39:55;;;;;;;3.47;1.13;;;;;;;6.18;100.00;97723.16;2557799;28;20560;-86
2024/01/02 00:41:13;;;;;;;7.20;1.75;;;;;;;6.07;100.00;97719.03;2560800;28;20046;-86
2024/01/02 00:42:29;;;;;;;5.25;1.75;;;;;;;5.93;100.00;97724.50;2572669;28;20081;-87
2024/01/02 00:43:45;;;;;;;3.42;1.13;;;;;;;6.18;100.00;97720.56;2557770;29;20192;-86
2024/01/02 00:45:05;;;;;;;10.13;1.50;;;;;;;5.99;100.00;97728.69;2547230;29;20039;-86
2024/01/02 00:46:21;;;;;;;4.82;1.25;;;;;;;5.86;100.00;97724.66;2563403;28;20508;-86
2024/01/02 00:47:37;;;;;;;7.50;2.05;;;;;;;5.89;100.00;97717.66;2568031;28;20041;-86
2024/01/02 00:48:53;;;;;;;3.42;1.13;;;;;;;5.94;100.00;97712.38;2558337;29;20037;-86
2024/01/02 00:50:11;;;;;;;5.25;1.42;;;;;;;6.11;100.00;97718.97;2566966;28;20043;-86
2024/01/02 00:51:27;;;;;;;5.07;1.70;;;;;;;6.07;100.00;97726.84;2564335;28;20031;-86
2024/01/02 00:52:43;;;;;;;5.45;1.13;;;;;;;6.13;100.00;97718.06;2565556;28;20511;-86
2024/01/02 00:53:59;;;;;;;5.80;1.30;;;;;;;5.91;100.00;97708.09;2574834;28;20035;-86
2024/01/02 00:55:16;;;;;;;7.07;1.92;;;;;;;5.84;100.00;97713.44;2562288;28;20043;-86
2024/01/02 00:56:31;;;;;;;5.47;1.50;;;;;;;5.94;100.00;97712.38;2562925;28;20034;-86
2024/01/02 00:57:48;;;;;;;2.28;1.13;;;;;;;6.21;100.00;97712.69;2571520;28;20101;-86
2024/01/02 00:59:03;;;;;;;6.03;1.40;;;;;;;6.05;100.00;97712.16;2571554;28;20046;-86
2024/01/02 01:00:20;;;;;;;3.08;1.23;;;;;;;6.22;100.00;97706.59;2561639;28;20135;-86
2024/01/02 01:01:36;;;;;;;2.17;0.95;;;;;;;6.13;100.00;97706.78;2555649;28;20043;-86
2024/01/02 01:02:54;;;;;;;4.60;1.10;;;;;;;6.26;100.00;97713.44;2555894;28;20055;-86
2024/01/02 01:04:10;;;;;;;5.05;1.30;;;;;;;6.24;100.00;97709.19;2563555;28;20030;-86
2024/01/02 01:05:26;;;;;;;3.08;1.38;;;;;;;6.14;100.00;97713.69;2563379;28;20054;-86
2024/01/02 01:06:42;;;;;;;4.22;1.20;;;;;;;6.24;100.00;97714.38;2565520;28;20031;-86
2024/01/02 01:08:00;;;;;;;2.80;0.90;;;;;;;6.22;100.00;97711.81;2574028;28;20073;-86
2024/01/02 01:09:16;;;;;;;3.30;1.15;;;;;;;5.99;100.00;97715.72;2561933;28;20047;-85
2024/01/02 01:10:33;;;;;;;5.13;1.33;;;;;;;6.23;100.00;97713.50;2564780;28;20386;-89
2024/01/02 01:11:49;;;;;;;2.63;1.00;;;;;;;6.28;100.00;97709.06;2573874;28;20065;-86
2024/01/02 01:13:05;;;;;;;6.60;1.70;;;;;;;6.40;100.00;97707.06;2568887;28;20081;-87
2024/01/02 01:14:21;;;;;;;4.53;1.45;;;;;;;6.12;100.00;97698.16;2561970;28;20031;-86
2024/01/02 01:15:38;;;;;;;5.75;1.42;;;;;;;6.08;100.00;97699.97;2561830;28;20423;-86
2024/01/02 01:16:54;;;;;;;9.77;1.75;;;;;;;6.23;100.00;97697.91;2570422;28;20030;-86
2024/01/02 01:18:10;;;;;;;4.47;1.20;;;;;;;6.37;100.00;97700.22;2568543;28;20054;-86
2024/01/02 01:19:26;;;;;;;8.20;1.20;;;;;;;6.33;100.00;97703.75;2554536;28;20062;-86
2024/01/02 01:20:42;;;;;;;2.40;1.00;;;;;;;6.14;100.00;97693.78;2545547;29;20099;-86
2024/01/02 01:21:58;;;;;;;5.85;1.50;;;;;;;6.35;100.00;97692.44;2540004;29;20044;-86
2024/01/02 01:23:15;;;;;;;4.28;1.50;;;;;;;6.29;100.00;97689.13;2546543;28;20496;-86
2024/01/02 01:24:31;;;;;;;5.13;1.10;;;;;;;6.26;100.00;97691.81;2565793;28;20038;-86
2024/01/02 01:25:47;;;;;;;4.22;1.38;;;;;;;6.26;100.00;97692.63;2572225;28;20042;-86
2024/01/02 01:27:03;;;;;;;6.10;1.42;;;;;;;6.05;100.00;97697.44;2573012;28;20042;-86
2024/01/02 01:28:24;;;;;;;4.63;1.45;;;;;;;5.91;100.00;97691.66;2572995;28;20062;-86
2024/01/02 01:29:41;;;;;;;5.85;1.20;;;;;;;5.83;100.00;97690.94;2573530;28;20062;-86
2024/01/02 01:30:57;;;;;;;4.68;1.60;;;;;;;5.79;100.00;97687.56;2563027;28;20449;-86
2024/01/02 01:32:13;;;;;;;6.57;1.40;;;;;;;5.89;100.00;97689.06;2566368;28;20050;-86
2024/01/02 01:33:30;;;;;;;5.07;1.20;;;;;;;5.79;100.00;97683.22;2569474;28;20542;-86
2024/01/02 01:34:46;;;;;;;6.25;1.75;;;;;;;5.81;100.00;97675.41;2564722;28;20135;-86
2024/01/02 01:36:03;;;;;;;6.57;1.33;;;;;;;5.91;100.00;97686.47;2572916;28;20046;-86
2024/01/02 01:37:19;;;;;;;5.60;1.55;;;;;;;5.95;100.00;97677.69;2561780;28;20035;-86
2024/01/02 01:38:37;;;;;;;7.70;1.60;;;;;;;5.91;100.00;97676.06;2567883;28;20061;-86
2024/01/02 01:39:56;;;;;;;5.20;1.52;;;;;;;5.25;100.00;97680.84;2571500;28;20546;-86
2024/01/02 01:41:13;;;;;;;4.43;1.33;;;;;;;5.44;100.00;97670.97;2572181;28;20518;-86
2024/01/02 01:42:29;;;;;;;6.72;1.40;;;;;;;5.37;100.00;97673.66;2552238;29;20058;-86
2024/01/02 01:43:48;;;;;;;6.32;2.22;;;;;;;5.44;100.00;97661.41;2551342;28;20110;-86
2024/01/02 01:45:04;;;;;;;5.55;1.30;;;;;;;5.52;100.00;97658.69;2561639;28;20523;-86
2024/01/02 01:46:20;;;;;;;5.68;2.22;;;;;;;5.50;100.00;97656.13;2568740;28;20043;-85
2024/01/02 01:47:36;;;;;;;6.95;2.33;;;;;;;5.48;100.00;97663.09;2561571;28;20039;-85
2024/01/02 01:48:53;;;;;;;6.72;2.08;;;;;;;5.46;100.00;97659.66;2564379;28;20110;-85
2024/01/02 01:50:11;;;;;;;10.15;2.55;;;;;;;5.42;100.00;97668.38;2573312;28;20141;-85
2024/01/02 01:51:27;;;;;;;10.82;2.50;;;;;;;5.42;100.00;97658.00;2567173;28;20031;-85
2024/01/02 01:52:45;;;;;;;7.80;1.98;;;;;;;5.26;100.00;97661.78;2569052;28;20034;-85
2024/01/02 01:54:03;;;;;;;11.80;2.30;;;;;;;5.26;100.00;97665.25;2560978;28;20058;-85
2024/01/02 01:55:20;;;;;;;4.75;1.95;;;;;;;5.39;100.00;97662.41;2565231;28;20525;-85
2024/01/02 01:56:39;;;;;;;9.18;3.28;;;;;;;5.01;100.00;97670.88;2569800;28;20150;-85
2024/01/02 01:57:55;;;;;;;7.10;1.80;;;;;;;5.09;100.00;97676.78;2574596;28;20124;-85
2024/01/02 01:59:12;;;;;;;5.60;2.20;;;;;;;5.23;100.00;97668.75;2570708;28;20049;-85
2024/01/02 02:00:29;;;;;;;4.85;1.73;;;;;;;5.23;100.00;97670.47;2571215;28;20074;-85
2024/01/02 02:01:46;;;;;;;4.30;1.50;;;;;;;5.22;100.00;97677.44;2567285;28;20042;-85
2024/01/02 02:03:02;;;;;;;5.65;1.63;;;;;;;5.09;100.00;97668.16;2571922;28;20415;-85
2024/01/02 02:04:21;;;;;;;5.85;1.50;;;;;;;4.57;100.00;97660.38;2572411;28;20049;-85
2024/01/02 02:05:37;;;;;;;9.45;1.67;;;;;;;4.81;100.00;97676.44;2572432;28;20050;-85
2024/01/02 02:06:53;;;;;;;3.90;1.83;;;;;;;5.02;100.00;97675.19;2561302;28;20031;-85
2024/01/02 02:08:09;;;;;;;4.32;1.65;;;;;;;5.15;100.00;97672.38;2570277;28;20634;-85
2024/01/02 02:09:25;;;;;;;7.00;1.70;;;;;;;5.11;100.00;97668.13;2571899;28;20038;-85
2024/01/02 02:10:41;;;;;;;5.60;1.50;;;;;;;4.64;100.00;97669.78;2563062;28;20030;-85
2024/01/02 02:11:57;;;;;;;3.60;1.58;;;;;;;5.06;100.00;97666.47;2562675;28;20082;-85
2024/01/02 02:13:14;;;;;;;6.57;1.60;;;;;;;5.08;100.00;97658.66;2564613;28;20045;-85
2024/01/02 02:14:31;;;;;;;6.53;1.85;;;;;;;5.22;100.00;97667.03;2547041;29;20043;-85
2024/01/02 02:15:49;;;;;;;5.50;1.60;;;;;;;5.25;100.00;97667.88;2557944;28;20050;-85
2024/01/02 02:17:04;;;;;;;7.25;1.90;;;;;;;5.28;100.00;97668.66;2572915;28;20058;-86
2024/01/02 02:18:20;;;;;;;5.28;1.92;;;;;;;5.37;100.00;97672.81;2569815;28;20046;-87
2024/01/02 02:19:36;;;;;;;4.53;1.48;;;;;;;5.16;100.00;97663.72;2561568;28;20581;-85
2024/01/02 02:20:52;;;;;;;6.43;2.00;;;;;;;5.27;100.00;97666.97;2567164;28;20049;-85
2024/01/02 02:22:13;;;;;;;8.20;1.65;;;;;;;5.33;100.00;97659.03;2566345;28;20043;-86
2024/01/02 02:23:29;;;;;;;4.90;1.25;;;;;;;5.31;100.00;97662.56;2556251;29;20102;-85
2024/01/02 02:24:45;;;;;;;3.53;1.27;;;;;;;5.38;100.00;97661.56;2539214;29;20620;-85
2024/01/02 02:26:02;;;;;;;5.03;1.48;;;;;;;5.37;100.00;97670.22;2548709;28;20940;-85
2024/01/02 02:27:19;;;;;;;6.10;1.75;;;;;;;5.30;100.00;97671.22;2559241;28;20090;-85
2024/01/02 02:28:35;;;;;;;6.07;1.30;;;;;;;5.35;100.00;97667.66;2550857;29;20079;-85
2024/01/02 02:29:51;;;;;;;6.78;1.48;;;;;;;5.31;100.00;97668.59;2547692;29;20043;-85
2024/01/02 02:31:09;;;;;;;3.80;1.35;;;;;;;5.41;100.00;97668.44;2547212;29;20508;-85
2024/01/02 02:32:26;;;;;;;6.05;1.75;;;;;;;5.55;100.00;97660.34;2551812;29;20130;-85
2024/01/02 02:33:42;;;;;;;6.05;1.27;;;;;;;5.31;100.00;97665.16;2545726;29;20460;-85
2024/01/02 02:34:58;;;;;;;7.80;1.73;;;;;;;5.36;100.00;97661.56;2535512;29;20203;-85
2024/01/02 02:36:17;;;;;;;7.00;1.95;;;;;;;5.43;100.00;97658.88;2549067;28;20141;-85
2024/01/02 02:37:34;;;;;;;5.68;1.65;;;;;;;5.41;100.00;97663.25;2538435;29;20067;-85
2024/01/02 02:38:50;;;;;;;3.80;1.63;;;;;;;5.51;100.00;97659.56;2551076;28;20208;-85
2024/01/02 02:40:06;;;;;;;5.82;1.10;;;;;;;5.46;100.00;97659.66;2564073;28;20065;-85
2024/01/02 02:41:22;;;;;;;6.53;1.90;;;;;;;5.79;100.00;97657.25;2562259;28;20196;-84
2024/01/02 02:42:38;;;;;;;5.00;1.27;;;;;;;5.62;100.00;97660.19;2563371;28;20042;-86
2024/01/02 02:43:54;;;;;;;4.00;1.48;;;;;;;5.71;100.00;97653.94;2563392;28;20043;-85
2024/01/02 02:45:10;;;;;;;9.32;2.38;;;;;;;5.73;100.00;97648.72;2563465;28;20514;-85
2024/01/02 02:46:28;;;;;;;3.35;1.25;;;;;;;5.78;100.00;97650.34;2551511;29;20130;-85
2024/01/02 02:47:45;;;;;;;4.43;1.48;;;;;;;5.82;100.00;97652.88;2552094;29;20058;-86
2024/01/02 02:49:01;;;;;;;8.75;1.60;;;;;;;5.77;100.00;97650.38;2544935;29;20416;-85
2024/01/02 02:50:17;;;;;;;6.57;1.48;;;;;;;5.83;100.00;97642.47;2556247;28;20063;-85
2024/01/02 02:51:33;;;;;;;6.22;2.00;;;;;;;5.93;100.00;97643.09;2552448;29;20066;-85
2024/01/02 02:52:49;;;;;;;4.95;1.60;;;;;;;5.88;100.00;97647.56;2557326;28;20061;-84
2024/01/02 02:54:05;;;;;;;7.22;1.88;;;;;;;5.82;100.00;97650.28;2562980;28;20533;-85
2024/01/02 02:55:22;;;;;;;5.13;1.63;;;;;;;5.76;100.00;97643.47;2553237;29;20047;-85
2024/01/02 02:56:43;;;;;;;5.00;1.17;;;;;;;5.71;100.00;97640.97;2556253;28;20081;-85
2024/01/02 02:57:59;;;;;;;10.13;1.60;;;;;;;5.74;100.00;97642.66;2561796;28;20400;-85
2024/01/02 02:59:16;;;;;;;5.00;2.25;;;;;;;5.72;100.00;97645.28;2562494;28;20082;-85
2024/01/02 03:00:34;;;;;;;8.05;1.50;;;;;;;5.57;100.00;97641.28;2559778;28;20586;-85
2024/01/02 03:01:51;;;;;;;2.65;1.30;;;;;;;5.78;100.00;97639.09;2557209;28;20035;-86
2024/01/02 03:03:08;;;;;;;3.42;1.30;;;;;;;5.80;100.00;97643.38;2557386;28;20122;-85
2024/01/02 03:04:26;;;;;;;5.75;1.55;;;;;;;6.02;100.00;97629.09;2561879;28;20438;-85
2024/01/02 03:05:44;;;;;;;5.18;1.35;;;;;;;6.03;100.00;97629.06;2551445;29;20043;-85
2024/01/02 03:07:00;;;;;;;6.85;1.33;;;;;;;5.98;100.00;97625.66;2548784;29;20047;-85
2024/01/02 03:08:16;;;;;;;6.28;1.50;;;;;;;6.04;100.00;97629.91;2554927;29;20090;-85
2024/01/02 03:09:32;;;;;;;3.65;1.40;;;;;;;6.03;100.00;97626.47;2561383;28;20549;-85
2024/01/02 03:10:51;;;;;;;4.65;1.40;;;;;;;6.06;100.00;97625.50;2552572;29;20043;-85
2024/01/02 03:12:12;;;;;;;6.28;1.90;;;;;;;5.85;100.00;97630.28;2544108;29;20507;-88
2024/01/02 03:13:29;;;;;;;4.50;1.55;;;;;;;5.78;100.00;97624.38;2542110;29;20043;-87
2024/01/02 03:14:45;;;;;;;6.70;2.00;;;;;;;5.95;100.00;97620.53;2555419;29;20047;-88
2024/01/02 03:16:01;;;;;;;5.00;1.85;;;;;;;5.83;100.00;97621.69;2560502;28;20035;-87
2024/01/02 03:17:17;;;;;;;4.85;1.90;;;;;;;5.85;100.00;97614.69;2564569;28;20467;-87
2024/01/02 03:18:33;;;;;;;4.78;1.50;;;;;;;5.73;100.00;97621.03;2564159;28;20043;-87
2024/01/02 03:19:49;;;;;;;5.32;1.75;;;;;;;5.85;100.00;97614.69;2555495;29;20039;-87
2024/01/02 03:21:07;;;;;;;5.80;1.45;;;;;;;5.91;100.00;97605.91;2556814;28;20052;-87
2024/01/02 03:22:23;;;;;;;5.70;1.67;;;;;;;6.01;100.00;97603.97;2554082;29;20098;-87
2024/01/02 03:23:39;;;;;;;6.18;1.40;;;;;;;5.83;100.00;97603.50;2547522;29;20044;-87
2024/01/02 03:24:56;;;;;;;3.25;1.20;;;;;;;5.97;100.00;97605.75;2554053;29;20060;-87
2024/01/02 03:26:13;;;;;;;4.50;1.50;;;;;;;5.92;100.00;97600.66;2558007;28;20090;-87
2024/01/02 03:27:29;;;;;;;9.30;1.92;;;;;;;5.96;100.00;97598.03;2553783;29;20507;-87
2024/01/02 03:28:45;;;;;;;9.50;1.67;;;;;;;5.92;100.00;97590.28;2557809;28;20049;-86
2024/01/02 03:30:03;;;;;;;4.00;1.20;;;;;;;5.99;100.00;97591.00;2562993;28;20039;-87
2024/01/02 03:31:19;;;;;;;5.93;1.60;;;;;;;5.76;100.00;97586.31;2539257;29;20424;-87
2024/01/02 03:32:35;;;;;;;4.45;1.65;;;;;;;5.79;100.00;97584.53;2545621;29;20775;-86
2024/01/02 03:33:51;;;;;;;3.20;1.20;;;;;;;5.82;100.00;97583.59;2544964;29;20092;-87
2024/01/02 03:35:31;;;;;;;5.63;1.48;;;;;;;5.80;100.00;97580.19;2556119;28;20106;-86
2024/01/02 03:36:48;;;;;;;6.22;1.30;;;;;;;5.75;100.00;97580.28;2561120;28;20048;-86
2024/01/02 03:38:04;;;;;;;4.60;1.30;;;;;;;5.40;100.00;97579.31;2559228;29;20488;-87
2024/01/02 03:39:21;;;;;;;3.60;1.50;;;;;;;5.60;100.00;97581.47;2548282;29;20130;-87
2024/01/02 03:40:37;;;;;;;3.50;1.30;;;;;;;5.49;100.00;97576.53;2561425;28;20058;-87
2024/01/02 03:41:54;;;;;;;7.97;1.60;;;;;;;5.55;100.00;97577.25;2552961;29;20098;-87
2024/01/02 03:43:10;;;;;;;2.85;1.30;;;;;;;5.72;100.00;97567.34;2543412;29;20050;-86
2024/01/02 03:44:26;;;;;;;3.38;1.33;;;;;;;5.65;100.00;97569.22;2553093;29;20115;-87
2024/01/02 03:45:42;;;;;;;3.22;1.02;;;;;;;5.65;100.00;97565.78;2558512;29;20094;-87
2024/01/02 03:46:59;;;;;;;1.35;0.70;;;;;;;5.61;100.00;97569.34;2558502;29;20074;-86
2024/01/02 03:48:16;;;;;;;4.65;1.27;;;;;;;5.82;100.00;97567.16;2567691;28;20137;-86
2024/01/02 03:49:33;;;;;;;8.90;1.63;;;;;;;5.93;100.00;97560.81;2563924;28;20410;-87
2024/01/02 03:50:49;;;;;;;4.85;1.20;;;;;;;6.06;100.00;97560.56;2547537;29;20044;-86
2024/01/02 03:52:05;;;;;;;8.07;1.30;;;;;;;5.95;100.00;97555.59;2541405;29;20058;-87
2024/01/02 03:53:21;;;;;;;5.63;1.48;;;;;;;6.00;100.00;97553.72;2548125;29;20040;-86
2024/01/02 03:54:37;;;;;;;6.18;1.58;;;;;;;5.92;100.00;97546.09;2560955;28;20514;-87
2024/01/02 03:55:55;;;;;;;3.72;1.40;;;;;;;5.84;100.00;97550.66;2559793;28;20119;-86
2024/01/02 03:57:10;;;;;;;4.40;1.45;;;;;;;5.91;100.00;97549.59;2558470;29;20027;-86
2024/01/02 03:58:27;;;;;;;6.13;1.15;;;;;;;5.98;100.00;97555.50;2547986;29;20060;-87
2024/01/02 03:59:43;;;;;;;3.88;1.42;;;;;;;6.02;100.00;97557.19;2549243;29;20130;-86
2024/01/02 04:01:00;;;;;;;5.82;1.45;;;;;;;6.07;100.00;97550.13;2561960;28;20066;-86
2024/01/02 04:02:16;;;;;;;3.55;1.35;;;;;;;5.99;100.00;97549.41;2550913;29;20048;-86
2024/01/02 04:03:32;;;;;;;3.65;1.85;;;;;;;5.89;100.00;97542.75;2551873;29;20027;-86
2024/01/02 04:04:48;;;;;;;3.72;1.13;;;;;;;5.90;100.00;97545.31;2557854;29;20036;-86
2024/01/02 04:06:04;;;;;;;4.53;1.38;;;;;;;5.94;100.00;97544.34;2558806;29;20069;-87
2024/01/02 04:07:23;;;;;;;4.10;1.48;;;;;;;5.98;100.00;97526.09;2568214;28;20522;-86
2024/01/02 04:08:39;;;;;;;3.60;1.25;;;;;;;5.94;100.00;97539.16;2553478;29;20048;-87
2024/01/02 04:09:56;;;;;;;6.20;1.50;;;;;;;5.93;100.00;97534.81;2547467;29;20039;-86
2024/01/02 04:11:13;;;;;;;4.25;1.20;;;;;;;5.87;100.00;97528.97;2562012;28;20057;-87
2024/01/02 04:12:29;;;;;;;11.07;1.45;;;;;;;5.93;100.00;97527.03;2553840;29;20056;-86
2024/01/02 04:13:45;;;;;;;3.30;1.48;;;;;;;6.07;100.00;97526.75;2561167;28;20042;-86
2024/01/02 04:15:01;;;;;;;6.05;1.42;;;;;;;5.85;100.00;97518.59;2557778;29;20924;-86
2024/01/02 04:16:17;;;;;;;5.72;1.73;;;;;;;5.97;100.00;97516.59;2558431;29;20083;-86
2024/01/02 04:17:34;;;;;;;4.45;1.17;;;;;;;6.10;100.00;97520.63;2558419;29;20031;-86
2024/01/02 04:18:51;;;;;;;3.17;1.20;;;;;;;5.92;100.00;97521.88;2554582;29;20031;-87
2024/01/02 04:20:08;;;;;;;4.40;1.30;;;;;;;5.90;100.00;97523.69;2551425;29;20086;-86
2024/01/02 04:21:24;;;;;;;5.20;1.60;;;;;;;5.93;100.00;97521.00;2557227;29;20039;-87
2024/01/02 04:22:40;;;;;;;4.03;1.40;;;;;;;5.99;100.00;97515.63;2548431;29;20388;-86
2024/01/02 04:23:56;;;;;;;3.88;1.50;;;;;;;5.90;100.00;97515.88;2551841;29;20047;-86
2024/01/02 04:25:14;;;;;;;5.30;1.92;;;;;;;5.87;100.00;97518.56;2557896;28;20479;-87
2024/01/02 04:26:30;;;;;;;7.63;1.60;;;;;;;5.68;100.00;97502.56;2547397;29;20056;-86
2024/01/02 04:27:46;;;;;;;5.63;1.40;;;;;;;5.77;100.00;97504.91;2557770;29;20452;-86
2024/01/02 04:29:03;;;;;;;6.10;1.30;;;;;;;5.77;100.00;97503.19;2552117;29;20047;-86
2024/01/02 04:30:18;;;;;;;6.40;1.38;;;;;;;5.94;100.00;97501.91;2554534;29;20047;-87
2024/01/02 04:31:34;;;;;;;5.80;1.23;;;;;;;5.70;100.00;97503.38;2558234;28;20113;-86
2024/01/02 04:32:51;;;;;;;6.97;1.02;;;;;;;5.78;100.00;97498.81;2553115;29;20048;-87
2024/01/02 04:34:07;;;;;;;5.00;1.60;;;;;;;5.84;100.00;97497.84;2556433;29;20053;-86
2024/01/02 04:35:24;;;;;;;2.85;1.08;;;;;;;5.82;100.00;97497.03;2549915;29;20118;-87
2024/01/02 04:36:41;;;;;;;4.07;1.55;;;;;;;5.83;100.00;97498.72;2555334;28;20039;-86
2024/01/02 04:37:57;;;;;;;3.42;1.40;;;;;;;5.72;100.00;97496.38;2549981;29;20110;-86
2024/01/02 04:39:13;;;;;;;2.42;0.90;;;;;;;5.71;100.00;97489.50;2547974;29;20472;-86
2024/01/02 04:40:29;;;;;;;4.78;1.55;;;;;;;5.84;100.00;97490.03;2555855;28;20039;-86
2024/01/02 04:41:45;;;;;;;3.90;1.05;;;;;;;5.83;100.00;97491.81;2552010;29;20051;-87
2024/01/02 04:43:01;;;;;;;3.50;0.95;;;;;;;5.78;100.00;97484.13;2547210;29;20126;-86
2024/01/02 04:44:17;;;;;;;2.10;0.90;;;;;;;5.84;100.00;97487.44;2547352;29;20058;-86
2024/01/02 04:45:33;;;;;;;1.88;0.35;;;;;;;5.71;100.00;97481.69;2557309;28;20114;-86
2024/01/02 04:46:51;;;;;;;2.25;1.10;;;;;;;5.83;100.00;97484.00;2550715;29;20055;-86
2024/01/02 04:48:08;;;;;;;5.50;1.20;;;;;;;5.93;100.00;97482.03;2556442;28;20471;-86
2024/01/02 04:49:26;;;;;;;1.35;0.60;;;;;;;5.78;100.00;97484.13;2551178;29;20035;-86
2024/01/02 04:50:42;;;;;;;1.73;0.60;;;;;;;5.72;100.00;97475.63;2559024;28;20525;-86
2024/01/02 04:51:57;;;;;;;1.42;0.88;;;;;;;5.78;100.00;97472.84;2542951;29;20093;-86
2024/01/02 04:53:13;;;;;;;2.40;1.00;;;;;;;5.92;100.00;97472.53;2546860;29;20031;-86
2024/01/02 04:54:29;;;;;;;2.67;0.45;;;;;;;5.82;100.00;97468.44;2562077;28;20066;-86
2024/01/02 04:55:46;;;;;;;6.07;1.13;;;;;;;5.83;100.00;97471.03;2552125;29;20549;-86
2024/01/02 04:57:02;;;;;;;1.38;0.60;;;;;;;5.84;100.00;97471.84;2557892;28;20110;-86
2024/01/02 04:58:18;;;;;;;2.20;0.93;;;;;;;5.96;100.00;97461.16;2544346;29;20491;-86
2024/01/02 04:59:34;;;;;;;2.00;0.70;;;;;;;5.93;100.00;97466.44;2551299;28;20034;-86
2024/01/02 05:00:50;;;;;;;3.72;0.90;;;;;;;5.97;100.00;97455.06;2554096;29;20079;-88
2024/01/02 05:02:06;;;;;;;1.38;0.77;;;;;;;5.84;100.00;97451.94;2557597;28;20415;-86
2024/01/02 05:03:22;;;;;;;1.42;0.95;;;;;;;5.78;100.00;97452.94;2562810;28;20035;-86
2024/01/02 05:04:39;;;;;;;1.65;0.77;;;;;;;5.98;100.00;97445.53;2553460;29;20077;-86
2024/01/02 05:05:56;;;;;;;7.47;1.55;;;;;;;6.06;100.00;97452.28;2558444;28;20081;-86
2024/01/02 05:07:11;;;;;;;2.25;0.50;;;;;;;5.95;100.00;97451.66;2551787;29;20043;-86
2024/01/02 05:08:29;;;;;;;3.38;0.90;;;;;;;6.07;100.00;97445.31;2556393;28;20047;-86
2024/01/02 05:09:45;;;;;;;3.75;0.98;;;;;;;5.80;100.00;97445.97;2561947;28;20061;-86
2024/01/02 05:11:02;;;;;;;2.22;0.90;;;;;;;5.98;100.00;97438.59;2554058;29;20491;-86
2024/01/02 05:12:18;;;;;;;5.82;0.65;;;;;;;5.82;100.00;97438.16;2557953;28;20050;-86
2024/01/02 05:13:36;;;;;;;5.35;1.20;;;;;;;5.98;100.00;97436.00;2561401;28;20046;-86
2024/01/02 05:14:52;;;;;;;3.35;0.82;;;;;;;6.02;100.00;97437.66;2553421;29;20047;-86
2024/01/02 05:16:10;;;;;;;0.57;0.55;;;;;;;5.89;100.00;97437.09;2553624;28;20057;-86
2024/01/02 05:17:26;;;;;;;4.30;1.17;;;;;;;5.91;100.00;97437.88;2565130;28;20526;-86
2024/01/02 05:18:41;;;;;;;3.10;1.20;;;;;;;6.04;100.00;97432.41;2553965;29;20079;-86
2024/01/02 05:19:58;;;;;;;2.55;0.70;;;;;;;5.93;100.00;97433.50;2557555;28;20042;-86
2024/01/02 05:21:14;;;;;;;4.18;1.00;;;;;;;5.94;100.00;97431.78;2557833;29;20038;-87
2024/01/02 05:22:36;;;;;;;1.25;0.47;;;;;;;5.88;100.00;97431.94;2560438;28;20039;-85
2024/01/02 05:23:54;;;;;;;3.05;0.77;;;;;;;5.86;100.00;97424.19;2550999;29;20043;-86
2024/01/02 05:25:12;;;;;;;1.92;0.90;;;;;;;5.86;100.00;97424.19;2557704;28;20047;-86
2024/01/02 05:26:28;;;;;;;3.38;0.93;;;;;;;5.86;100.00;97425.91;2552401;29;20615;-86
2024/01/02 05:27:44;;;;;;;4.50;0.85;;;;;;;5.83;100.00;97419.06;2545585;29;20038;-87
2024/01/02 05:29:02;;;;;;;1.90;0.93;;;;;;;5.62;100.00;97418.69;2544008;29;20058;-86
2024/01/02 05:30:18;;;;;;;3.13;0.65;;;;;;;5.89;100.00;97412.88;2548091;29;20060;-86
2024/01/02 05:31:34;;;;;;;3.67;0.93;;;;;;;5.70;100.00;97421.09;2555994;28;20074;-87
2024/01/02 05:32:52;;;;;;;1.27;0.77;;;;;;;5.80;100.00;97409.59;2552503;29;20503;-86
2024/01/02 05:34:07;;;;;;;3.17;1.25;;;;;;;5.59;100.00;97404.97;2543139;29;20081;-87
2024/01/02 05:35:24;;;;;;;2.58;0.95;;;;;;;5.72;100.00;97405.50;2538914;29;20096;-87
2024/01/02 05:36:44;;;;;;;4.22;0.90;;;;;;;5.83;100.00;97406.06;2544021;29;20427;-87
2024/01/02 05:38:02;;;;;;;0.50;0.50;;;;;;;5.63;100.00;97403.97;2552087;29;20134;-86
2024/01/02 05:39:18;;;;;;;1.15;0.85;;;;;;;5.63;100.00;97402.22;2558410;29;20050;-86
2024/01/02 05:40:34;;;;;;;4.03;1.25;;;;;;;5.75;100.00;97402.81;2547802;29;20396;-86
2024/01/02 05:41:50;;;;;;;2.08;0.80;;;;;;;5.60;100.00;97396.28;2541209;29;20198;-87
2024/01/02 05:43:05;;;;;;;2.25;0.73;;;;;;;5.57;100.00;97391.13;2554792;28;20083;-86
2024/01/02 05:44:23;;;;;;;1.73;0.95;;;;;;;5.59;100.00;97394.56;2553242;29;20047;-87
2024/01/02 05:45:39;;;;;;;3.80;1.35;;;;;;;5.64;100.00;97387.50;2552745;29;20045;-87
2024/01/02 05:46:56;;;;;;;4.45;1.02;;;;;;;5.80;100.00;97390.59;2549673;29;20039;-87
2024/01/02 05:48:13;;;;;;;2.92;0.90;;;;;;;5.87;100.00;97386.09;2557391;28;20043;-86
2024/01/02 05:49:28;;;;;;;2.85;1.20;;;;;;;6.04;100.00;97391.72;2555014;29;20064;-86
2024/01/02 05:50:46;;;;;;;2.13;1.00;;;;;;;5.91;100.00;97385.09;2550105;29;20043;-87
2024/01/02 05:52:02;;;;;;;2.80;0.95;;;;;;;5.82;100.00;97390.53;2552174;29;20101;-87
2024/01/02 05:53:18;;;;;;;4.57;1.50;;;;;;;5.97;100.00;97381.50;2562476;28;20432;-87
2024/01/02 05:54:34;;;;;;;5.60;1.85;;;;;;;5.90;100.00;97383.41;2554224;29;20110;-87
2024/01/02 05:55:50;;;;;;;2.65;1.25;;;;;;;5.57;100.00;97386.81;2548194;29;20055;-87
2024/01/02 05:57:06;;;;;;;5.10;1.60;;;;;;;5.87;100.00;97381.72;2546462;29;20534;-86
2024/01/02 05:58:22;;;;;;;7.13;1.70;;;;;;;5.86;100.00;97376.56;2535812;29;20036;-87
2024/01/02 05:59:38;;;;;;;5.20;1.60;;;;;;;5.55;100.00;97377.34;2551014;28;20035;-87
2024/01/02 06:00:54;;;;;;;6.50;1.60;;;;;;;5.61;100.00;97378.03;2550624;29;20498;-87